GUP weather

Gallup Municipal Airport
Gallup, New Mexico, United States

Public forecast

Using degrees Fahrenheit for public forecast. Weather courtesy of forecast.io.

Current aviation weather report (METAR) for Gallup Municipal Airport

Retrieved 2019/10/15 03:53 UTC (1 hour ago):

KGUP 150353Z AUTO 00000KT 10SM CLR 06/M09 A3017 RMK AO2 SLP147 T00611089

Aviation forecast (TAF) for Gallup Municipal Airport

Retrieved 2019-10-15 00:22 UTC (5 hours ago):

TAF KGUP 142320Z 1500/1524 26011G21KT P6SM SKC FM150200 VRB03KT P6SM SKC FM151800 36006KT P6SM FEW090